Time;durP1;ratioP1;P1;durP2;ratioP2;P2;SDS_P1;SDS_P2;PMS_P1;PMS_P2;Temp;Humidity;BMP_temperature;BMP_pressure;BME280_temperature;BME280_humidity;BME280_pressure;Samples;Min_cycle;Max_cycle;Signal;HPM_P1;HPM_P2
2023/05/09 00:01:57;;;;;;;1999.90;999.90;;;;;;;12.74;100.00;98427.81;5030836;28;20052;-73
2023/05/09 00:04:24;;;;;;;1999.90;999.90;;;;;;;12.78;100.00;98425.31;5030709;28;20393;-72
2023/05/09 00:06:50;;;;;;;1999.90;999.90;;;;;;;12.71;100.00;98420.19;5030924;28;20052;-74
2023/05/09 00:09:15;;;;;;;1999.90;999.90;;;;;;;12.82;100.00;98426.31;5031382;28;20030;-73
2023/05/09 00:11:41;;;;;;;1999.90;999.90;;;;;;;12.84;100.00;98427.66;5031025;28;20398;-72
2023/05/09 00:14:07;;;;;;;1999.90;999.90;;;;;;;12.77;100.00;98423.66;5030822;28;20064;-73
2023/05/09 00:16:32;;;;;;;1999.90;999.90;;;;;;;12.77;100.00;98416.25;5030744;28;20017;-73
2023/05/09 00:18:58;;;;;;;1999.90;999.90;;;;;;;12.75;100.00;98418.47;5030157;28;20474;-72
2023/05/09 00:21:24;;;;;;;1999.90;999.90;;;;;;;12.75;100.00;98409.41;5030324;28;20032;-73
2023/05/09 00:23:49;;;;;;;1999.90;999.90;;;;;;;12.81;100.00;98409.03;5030439;28;20520;-73
2023/05/09 00:26:15;;;;;;;1999.90;999.90;;;;;;;12.76;100.00;98400.88;5030221;28;20065;-73
2023/05/09 00:28:40;;;;;;;1999.90;999.90;;;;;;;12.77;100.00;98402.53;5030244;28;20029;-73
2023/05/09 00:31:05;;;;;;;1999.90;999.90;;;;;;;12.73;100.00;98396.00;5030180;28;20030;-73
2023/05/09 00:33:31;;;;;;;1999.90;999.90;;;;;;;12.71;100.00;98392.75;5029993;28;20061;-73
2023/05/09 00:35:57;;;;;;;1999.90;999.90;;;;;;;12.69;100.00;98399.63;5029964;28;20026;-73
2023/05/09 00:38:22;;;;;;;1999.90;999.90;;;;;;;12.62;100.00;98393.72;5030115;28;20032;-73
2023/05/09 00:40:48;;;;;;;1999.90;999.90;;;;;;;12.65;100.00;98391.19;5012463;28;20042;-73
2023/05/09 00:43:13;;;;;;;1999.90;999.90;;;;;;;12.66;100.00;98390.06;5010392;28;20474;-73
2023/05/09 00:45:39;;;;;;;1999.90;999.90;;;;;;;12.63;100.00;98390.66;4993129;28;20030;-73
2023/05/09 00:48:05;;;;;;;1999.90;999.90;;;;;;;12.66;100.00;98390.06;5010239;28;20038;-75
2023/05/09 00:50:30;;;;;;;1999.90;999.90;;;;;;;12.69;100.00;98378.47;4975968;28;20113;-73
2023/05/09 00:52:57;;;;;;;1999.90;999.90;;;;;;;12.65;100.00;98382.97;5010451;28;20545;-73
2023/05/09 00:55:22;;;;;;;1999.90;999.90;;;;;;;12.70;100.00;98374.63;5010487;28;20072;-72
2023/05/09 00:57:48;;;;;;;1999.90;999.90;;;;;;;12.65;100.00;98360.19;5010212;28;20061;-73
2023/05/09 01:00:13;;;;;;;1999.90;999.90;;;;;;;12.73;100.00;98368.53;5010278;28;20471;-73
2023/05/09 01:02:45;;;;;;;1999.90;999.90;;;;;;;12.68;100.00;98363.16;5013084;28;20017;-72
2023/05/09 01:05:11;;;;;;;1999.90;999.90;;;;;;;12.68;100.00;98368.63;5013714;28;20602;-72
2023/05/09 01:08:26;;;;;;;1999.90;999.90;;;;;;;12.64;100.00;98372.25;5013861;28;20060;-72
2023/05/09 01:11:06;;;;;;;1999.90;999.90;;;;;;;12.71;100.00;98379.03;5010404;28;20046;-72
2023/05/09 01:13:40;;;;;;;1999.90;999.90;;;;;;;12.73;100.00;98374.03;5013586;28;20872;-73
2023/05/09 01:16:18;;;;;;;1999.90;999.90;;;;;;;12.76;100.00;98372.63;4996282;28;20026;-72
2023/05/09 01:18:50;;;;;;;1999.90;999.90;;;;;;;12.66;100.00;98376.34;5006601;28;20127;-73
2023/05/09 01:21:20;;;;;;;1999.90;999.90;;;;;;;12.65;100.00;98376.66;5013504;28;20038;-73
2023/05/09 01:24:14;;;;;;;1999.90;999.90;;;;;;;12.69;100.00;98377.66;5013168;28;20499;-72
2023/05/09 01:26:54;;;;;;;1999.90;999.90;;;;;;;12.71;100.00;98368.03;5013355;28;20033;-73
2023/05/09 01:29:35;;;;;;;1999.90;999.90;;;;;;;12.75;100.00;98369.03;5013561;28;20025;-73
2023/05/09 01:32:06;;;;;;;1999.90;999.90;;;;;;;12.71;100.00;98365.28;5013195;28;20041;-73
2023/05/09 01:34:32;;;;;;;1999.90;999.90;;;;;;;12.70;100.00;98352.69;5013211;28;20038;-73
2023/05/09 01:37:00;;;;;;;1999.90;999.90;;;;;;;12.62;100.00;98352.53;5013260;28;20507;-73
2023/05/09 01:39:26;;;;;;;1999.90;999.90;;;;;;;12.71;100.00;98353.50;5019322;28;20057;-73
2023/05/09 01:41:55;;;;;;;1999.90;999.90;;;;;;;12.67;100.00;98358.75;5032944;28;20055;-73
2023/05/09 01:44:22;;;;;;;1999.90;999.90;;;;;;;12.75;100.00;98360.81;5032937;28;20029;-73
2023/05/09 01:46:51;;;;;;;1999.90;999.90;;;;;;;12.62;100.00;98349.81;5015381;28;20033;-73
2023/05/09 01:49:19;;;;;;;1999.90;999.90;;;;;;;12.70;100.00;98346.38;5032647;28;20545;-73
2023/05/09 01:51:46;;;;;;;1999.90;999.90;;;;;;;12.71;100.00;98348.81;5032660;28;20025;-72
2023/05/09 01:54:12;;;;;;;1999.90;999.90;;;;;;;12.63;100.00;98341.25;5032812;28;20363;-73
2023/05/09 01:56:41;;;;;;;1999.90;999.90;;;;;;;12.60;100.00;98341.03;5032625;28;20037;-72
2023/05/09 01:59:07;;;;;;;1999.90;999.90;;;;;;;12.61;100.00;98338.00;5032414;28;20029;-73
2023/05/09 02:01:33;;;;;;;1999.90;999.90;;;;;;;12.58;100.00;98335.84;5032913;28;20742;-73
2023/05/09 02:03:59;;;;;;;1999.90;999.90;;;;;;;12.56;100.00;98334.53;5041450;28;20053;-73
2023/05/09 02:06:28;;;;;;;1999.90;999.90;;;;;;;12.55;100.00;98336.47;5046982;28;20025;-72
2023/05/09 02:08:54;;;;;;;1999.90;999.90;;;;;;;12.62;100.00;98331.41;5052183;28;20086;-73
2023/05/09 02:11:19;;;;;;;1999.90;999.90;;;;;;;12.61;100.00;98329.78;5034207;28;20025;-73
2023/05/09 02:13:45;;;;;;;1999.90;999.90;;;;;;;12.56;100.00;98327.09;5050771;28;20021;-73
2023/05/09 02:16:10;;;;;;;1999.90;999.90;;;;;;;12.53;100.00;98324.94;5052409;28;20033;-73
2023/05/09 02:18:36;;;;;;;1999.90;999.90;;;;;;;12.61;100.00;98329.78;5051992;28;20025;-74
2023/05/09 02:21:02;;;;;;;1999.90;999.90;;;;;;;12.63;100.00;98329.44;5052035;28;20397;-73
2023/05/09 02:23:27;;;;;;;1999.90;999.90;;;;;;;12.62;100.00;98322.34;5052028;28;20021;-73
2023/05/09 02:25:53;;;;;;;1999.90;999.90;;;;;;;12.60;100.00;98335.53;5051481;28;20078;-72
2023/05/09 02:28:21;;;;;;;1999.90;999.90;;;;;;;12.58;100.00;98333.13;5023688;28;20036;-73
2023/05/09 02:30:48;;;;;;;1999.90;999.90;;;;;;;12.52;100.00;98336.22;5042810;28;20021;-73
2023/05/09 02:33:14;;;;;;;1999.90;999.90;;;;;;;12.56;100.00;98334.53;5030786;28;20034;-73
2023/05/09 02:35:42;;;;;;;1999.90;999.90;;;;;;;12.50;100.00;98344.75;5035044;28;20033;-72
2023/05/09 02:38:09;;;;;;;1999.90;999.90;;;;;;;12.59;100.00;98340.22;5032395;28;20509;-72
2023/05/09 02:40:34;;;;;;;1999.90;999.90;;;;;;;12.58;100.00;98344.09;5047765;28;20150;-73
2023/05/09 02:42:59;;;;;;;1999.90;999.90;;;;;;;12.56;100.00;98338.06;5051731;28;20112;-72
2023/05/09 02:45:25;;;;;;;1999.90;999.90;;;;;;;12.51;100.00;98334.59;5051918;28;20033;-73
2023/05/09 02:47:50;;;;;;;1999.90;999.90;;;;;;;12.51;100.00;98338.16;5051681;28;20028;-73
2023/05/09 02:50:16;;;;;;;1999.90;999.90;;;;;;;12.51;100.00;98340.91;5031672;28;20106;-74
2023/05/09 02:52:42;;;;;;;1999.90;999.90;;;;;;;12.56;100.00;98351.00;5036421;28;20061;-73
2023/05/09 02:55:08;;;;;;;1999.90;999.90;;;;;;;12.61;100.00;98350.91;5032062;28;20123;-73
2023/05/09 02:57:34;;;;;;;1999.90;999.90;;;;;;;12.57;100.00;98349.88;5050603;28;20025;-73
2023/05/09 03:00:00;;;;;;;1999.90;999.90;;;;;;;12.63;100.00;98349.50;5050898;28;20162;-73
2023/05/09 03:02:26;;;;;;;1999.90;999.90;;;;;;;12.52;100.00;98347.22;5050733;28;20029;-73
2023/05/09 03:04:51;;;;;;;1999.90;999.90;;;;;;;12.57;100.00;98347.13;5050635;28;20023;-73
2023/05/09 03:07:16;;;;;;;1999.90;999.90;;;;;;;12.51;100.00;98343.66;5049644;28;20027;-73
2023/05/09 03:09:42;;;;;;;1999.90;999.90;;;;;;;12.46;100.00;98345.66;5030756;28;20367;-73
2023/05/09 03:12:07;;;;;;;1999.90;999.90;;;;;;;12.47;100.00;98345.34;5030571;28;20506;-72
2023/05/09 03:14:32;;;;;;;1999.90;999.90;;;;;;;12.45;100.00;98338.53;5030724;28;20065;-73
2023/05/09 03:16:58;;;;;;;1999.90;999.90;;;;;;;12.44;100.00;98343.19;5031225;28;20140;-72
2023/05/09 03:19:23;;;;;;;1999.90;999.90;;;;;;;12.39;100.00;98343.28;5030774;28;20029;-72
2023/05/09 03:21:48;;;;;;;1999.90;999.90;;;;;;;12.35;100.00;98344.97;5030670;28;20144;-73
2023/05/09 03:24:14;;;;;;;1999.90;999.90;;;;;;;12.41;100.00;98352.03;5029969;28;20026;-72
2023/05/09 03:26:39;;;;;;;1999.90;999.90;;;;;;;12.33;100.00;98344.47;5012485;28;20401;-73
2023/05/09 03:29:04;;;;;;;1999.90;999.90;;;;;;;12.31;100.00;98349.44;5030325;28;20048;-72
2023/05/09 03:31:30;;;;;;;1999.90;999.90;;;;;;;12.15;100.00;98340.59;5030200;28;20036;-73
2023/05/09 03:33:56;;;;;;;1999.90;999.90;;;;;;;12.23;100.00;98330.91;5030518;28;20552;-73
2023/05/09 03:36:22;;;;;;;1999.90;999.90;;;;;;;12.34;100.00;98343.38;5030596;28;20060;-73
2023/05/09 03:38:47;;;;;;;1999.90;999.90;;;;;;;12.42;100.00;98339.13;5029015;28;20042;-73
2023/05/09 03:41:15;;;;;;;1999.90;999.90;;;;;;;12.35;100.00;98342.25;5010674;28;20030;-73
2023/05/09 03:43:41;;;;;;;1999.90;999.90;;;;;;;12.45;100.00;98342.09;5010570;28;20025;-72
2023/05/09 03:46:06;;;;;;;1999.90;999.90;;;;;;;12.46;100.00;98342.91;5030737;28;20029;-73
2023/05/09 03:48:31;;;;;;;1999.90;999.90;;;;;;;12.42;100.00;98345.44;5030356;28;20033;-73
2023/05/09 03:50:57;;;;;;;1999.90;999.90;;;;;;;12.40;100.00;98344.94;5030518;28;20053;-73
2023/05/09 03:53:22;;;;;;;1999.90;999.90;;;;;;;12.39;100.00;98343.28;5030167;28;20022;-73
2023/05/09 03:55:47;;;;;;;1999.90;999.90;;;;;;;12.33;100.00;98339.00;5030164;28;20033;-73
2023/05/09 03:58:13;;;;;;;1999.90;999.90;;;;;;;12.45;100.00;98344.84;5030236;28;20044;-73
2023/05/09 04:00:39;;;;;;;1999.90;999.90;;;;;;;12.43;100.00;98347.06;5030183;28;20053;-72
2023/05/09 04:03:05;;;;;;;1999.90;999.90;;;;;;;12.44;100.00;98345.13;5030204;28;20402;-73
2023/05/09 04:05:32;;;;;;;1999.90;999.90;;;;;;;12.42;100.00;98345.44;5030108;28;20014;-73
2023/05/09 04:07:58;;;;;;;1999.90;999.90;;;;;;;12.38;100.00;98349.06;5030230;28;20112;-72
2023/05/09 04:10:24;;;;;;;1999.90;999.90;;;;;;;12.40;100.00;98353.16;5030666;28;20543;-74
2023/05/09 04:12:49;;;;;;;1999.90;999.90;;;;;;;12.35;100.00;98345.81;5037607;28;20034;-71
2023/05/09 04:15:15;;;;;;;1999.90;999.90;;;;;;;12.40;100.00;98347.66;5032049;28;20079;-71
2023/05/09 04:17:40;;;;;;;1999.90;999.90;;;;;;;12.40;100.00;98352.34;5030476;28;20048;-72
2023/05/09 04:20:07;;;;;;;1999.90;999.90;;;;;;;12.33;100.00;98352.72;5031724;28;20064;-72
2023/05/09 04:22:32;;;;;;;1999.90;999.90;;;;;;;12.28;100.00;98339.03;5029790;28;20037;-71
2023/05/09 04:24:57;;;;;;;1999.90;999.90;;;;;;;12.33;100.00;98352.72;5029776;28;20029;-72
2023/05/09 04:27:23;;;;;;;1999.90;999.90;;;;;;;12.41;100.00;98360.25;5030011;28;20036;-72
2023/05/09 04:29:48;;;;;;;1999.90;999.90;;;;;;;12.47;100.00;98366.50;5030007;28;20034;-72
2023/05/09 04:32:14;;;;;;;1999.90;999.90;;;;;;;12.48;100.00;98357.13;5029722;28;20057;-72
2023/05/09 04:34:40;;;;;;;1999.90;999.90;;;;;;;12.43;100.00;98366.28;5029758;28;20505;-72
2023/05/09 04:37:05;;;;;;;1999.90;999.90;;;;;;;12.39;100.00;98357.00;5031957;28;20017;-73
2023/05/09 04:39:30;;;;;;;1999.90;999.90;;;;;;;12.46;100.00;98368.44;5032931;28;20056;-72
2023/05/09 04:41:56;;;;;;;1999.90;999.90;;;;;;;12.50;100.00;98371.41;5033448;28;20025;-72
2023/05/09 04:44:22;;;;;;;1999.90;999.90;;;;;;;12.45;100.00;98372.28;5033536;28;20088;-72
2023/05/09 04:46:47;;;;;;;1999.90;999.90;;;;;;;12.48;100.00;98371.69;5033119;28;20032;-72
2023/05/09 04:49:12;;;;;;;1999.90;999.90;;;;;;;12.52;100.00;98369.97;5030493;28;20029;-74
2023/05/09 04:51:38;;;;;;;1999.90;999.90;;;;;;;12.28;100.00;98367.28;5015589;28;20013;-72
2023/05/09 04:54:03;;;;;;;1999.90;999.90;;;;;;;12.31;100.00;98355.72;5033767;28;20036;-72
2023/05/09 04:56:28;;;;;;;1999.90;999.90;;;;;;;12.47;100.00;98372.78;5033352;28;20115;-73
2023/05/09 04:58:54;;;;;;;1999.90;999.90;;;;;;;12.43;100.00;98368.22;5037713;28;20398;-79
2023/05/09 05:01:19;;;;;;;1999.90;999.90;;;;;;;12.48;100.00;98368.94;5036739;28;20486;-83
2023/05/09 05:03:44;;;;;;;1999.90;999.90;;;;;;;12.51;100.00;98373.81;5039041;28;20025;-80
2023/05/09 05:06:10;;;;;;;1999.90;999.90;;;;;;;12.53;100.00;98368.06;5041002;28;20025;-82
2023/05/09 05:08:35;;;;;;;1999.90;999.90;;;;;;;12.60;100.00;98366.56;5041958;28;20025;-82
2023/05/09 05:11:01;;;;;;;1999.90;999.90;;;;;;;12.49;100.00;98359.59;5036223;28;20031;-72
2023/05/09 05:13:26;;;;;;;1999.90;999.90;;;;;;;12.58;100.00;98376.19;5020073;28;20042;-72
2023/05/09 05:15:52;;;;;;;1999.90;999.90;;;;;;;12.57;100.00;98375.38;5013552;28;20041;-72
2023/05/09 05:18:17;;;;;;;1999.90;999.90;;;;;;;12.56;100.00;98376.47;5013611;28;20034;-72
2023/05/09 05:20:42;;;;;;;1999.90;999.90;;;;;;;12.58;100.00;98373.47;5013403;28;20037;-72
2023/05/09 05:23:09;;;;;;;1999.90;999.90;;;;;;;12.64;100.00;98369.53;5024141;28;20084;-73
2023/05/09 05:25:34;;;;;;;1999.90;999.90;;;;;;;12.66;100.00;98379.06;5031074;28;20033;-73
2023/05/09 05:27:59;;;;;;;1999.90;999.90;;;;;;;12.67;100.00;98375.22;5030697;28;20146;-73
2023/05/09 05:30:25;;;;;;;1999.90;999.90;;;;;;;12.70;100.00;98373.81;5030998;28;20026;-73
2023/05/09 05:32:50;;;;;;;1999.90;999.90;;;;;;;12.71;100.00;98376.28;5031108;28;20108;-72
2023/05/09 05:35:16;;;;;;;1999.90;999.90;;;;;;;12.70;100.00;98371.88;5031065;28;20364;-72
2023/05/09 05:37:43;;;;;;;1999.90;999.90;;;;;;;12.79;100.00;98378.31;5021319;28;20076;-72
2023/05/09 05:40:08;;;;;;;1999.90;999.90;;;;;;;12.82;100.00;98372.25;5027634;28;20402;-72
2023/05/09 05:42:34;;;;;;;1999.90;999.90;;;;;;;12.84;100.00;98370.00;5028527;28;20021;-72
2023/05/09 05:45:03;;;;;;;1999.90;999.90;;;;;;;12.93;100.00;98377.56;5027777;28;20368;-73
2023/05/09 05:47:32;;;;;;;1999.90;999.90;;;;;;;12.95;100.00;98373.41;5015220;28;20386;-73
2023/05/09 05:49:58;;;;;;;1999.90;999.90;;;;;;;12.94;100.00;98381.94;5029953;28;20022;-72
2023/05/09 05:52:24;;;;;;;1999.90;999.90;;;;;;;12.85;100.00;98374.38;5032267;28;20159;-72
2023/05/09 05:54:49;;;;;;;1999.90;999.90;;;;;;;13.00;100.00;98378.00;5031450;28;20109;-72
2023/05/09 05:57:14;;;;;;;1999.90;999.90;;;;;;;13.08;100.00;98380.06;5029704;28;20040;-72
2023/05/09 05:59:40;;;;;;;1999.90;999.90;;;;;;;12.99;100.00;98376.38;5031991;28;20030;-72
2023/05/09 06:02:05;;;;;;;1999.90;999.90;;;;;;;13.08;100.00;98374.56;5031661;28;20108;-72
2023/05/09 06:04:30;;;;;;;1999.90;999.90;;;;;;;13.19;100.00;98381.53;5031989;28;20036;-72
2023/05/09 06:06:56;;;;;;;1999.90;999.90;;;;;;;13.28;100.00;98386.03;5031896;28;21496;-72
2023/05/09 06:09:21;;;;;;;1999.90;999.90;;;;;;;13.19;100.00;98381.53;5031489;28;20445;-73
2023/05/09 06:11:46;;;;;;;1999.90;999.90;;;;;;;13.18;100.00;98382.66;5013788;28;20029;-73
2023/05/09 06:14:12;;;;;;;1999.90;999.90;;;;;;;12.99;100.00;98387.34;5031970;28;20497;-72
2023/05/09 06:16:38;;;;;;;1999.90;999.90;;;;;;;13.28;100.00;98377.00;5014567;28;20033;-74
2023/05/09 06:19:03;;;;;;;1999.90;999.90;;;;;;;13.44;100.00;98383.81;5034859;28;20037;-75
2023/05/09 06:21:29;;;;;;;1999.90;999.90;;;;;;;13.53;100.00;98373.78;5037094;28;20513;-74
2023/05/09 06:23:54;;;;;;;1999.90;999.90;;;;;;;13.60;100.00;98379.66;5031861;28;20099;-74
2023/05/09 06:26:21;;;;;;;1999.90;999.90;;;;;;;13.69;100.00;98380.56;5031242;28;20032;-74
2023/05/09 06:28:46;;;;;;;1999.90;999.90;;;;;;;13.62;100.00;98363.69;5032049;28;20036;-75
2023/05/09 06:31:11;;;;;;;1999.90;999.90;;;;;;;13.76;100.00;98380.19;5031517;28;20029;-73
2023/05/09 06:33:36;;;;;;;1999.90;999.90;;;;;;;13.65;100.00;98371.34;5031725;28;20033;-74
2023/05/09 06:36:02;;;;;;;1999.90;999.90;;;;;;;13.90;100.00;98367.25;5031402;28;20033;-74
2023/05/09 06:38:27;;;;;;;1999.90;999.90;;;;;;;13.92;100.00;98373.25;5031174;28;20065;-74
2023/05/09 06:40:52;;;;;;;1999.90;999.90;;;;;;;13.90;100.00;98364.50;5031389;28;20099;-73
2023/05/09 06:43:18;;;;;;;1999.90;999.90;;;;;;;13.94;100.00;98358.06;5031277;28;20509;-72
2023/05/09 06:45:43;;;;;;;1999.90;999.90;;;;;;;14.12;100.00;98363.75;5017119;28;20028;-75
2023/05/09 06:48:09;;;;;;;1999.90;999.90;;;;;;;14.04;100.00;98364.47;5011626;28;20025;-74
2023/05/09 06:50:34;;;;;;;1999.90;999.90;;;;;;;13.98;100.00;98355.53;5011548;28;20410;-73
2023/05/09 06:52:59;;;;;;;1999.90;999.90;;;;;;;13.95;100.00;98351.44;5011321;28;20033;-74
2023/05/09 06:55:25;;;;;;;1999.90;999.90;;;;;;;13.78;100.00;98356.75;5011524;28;20034;-73
2023/05/09 06:57:50;;;;;;;1999.90;999.90;;;;;;;14.09;100.00;98364.38;5011378;28;20073;-73
2023/05/09 07:00:16;;;;;;;1999.90;999.90;;;;;;;14.07;100.00;98361.91;5010724;28;20489;-74
2023/05/09 07:02:42;;;;;;;1999.90;999.90;;;;;;;13.83;100.00;98351.16;5011333;28;20663;-73
2023/05/09 07:05:08;;;;;;;1999.90;999.90;;;;;;;13.79;100.00;98347.38;5011240;28;20042;-75
2023/05/09 07:07:34;;;;;;;1999.90;999.90;;;;;;;13.81;100.00;98349.84;5011069;28;20030;-75
2023/05/09 07:10:00;;;;;;;1999.90;999.90;;;;;;;13.74;100.00;98354.94;5011158;28;20060;-76
2023/05/09 07:12:25;;;;;;;1999.90;999.90;;;;;;;13.63;100.00;98359.81;5011300;28;20033;-75
2023/05/09 07:14:50;;;;;;;1999.90;999.90;;;;;;;13.87;100.00;98357.69;5011704;28;20399;-73
2023/05/09 07:17:16;;;;;;;1999.90;999.90;;;;;;;14.13;100.00;98357.94;5011294;28;20037;-74
2023/05/09 07:19:41;;;;;;;1999.90;999.90;;;;;;;14.27;100.00;98357.91;5011117;28;20497;-73
2023/05/09 07:22:06;;;;;;;1999.90;999.90;;;;;;;14.40;100.00;98354.34;5010963;28;20367;-73
2023/05/09 07:24:32;;;;;;;1999.90;999.90;;;;;;;14.38;100.00;98353.84;5011223;28;20040;-74
2023/05/09 07:26:57;;;;;;;1999.90;999.90;;;;;;;14.43;100.00;98356.50;5011314;28;20061;-74
2023/05/09 07:29:22;;;;;;;1999.90;999.90;;;;;;;14.50;100.00;98356.88;5011285;28;20103;-74
2023/05/09 07:31:47;;;;;;;1999.90;999.90;;;;;;;14.39;100.00;98358.22;4994595;28;20025;-73
2023/05/09 07:34:15;;;;;;;1999.90;999.90;;;;;;;14.42;100.00;98343.84;5012003;28;20028;-73
2023/05/09 07:36:40;;;;;;;1999.90;999.90;;;;;;;14.63;100.00;98347.72;5011247;28;20564;-74
2023/05/09 07:39:06;;;;;;;1999.90;999.90;;;;;;;14.61;100.00;98349.19;5014533;28;20084;-74
2023/05/09 07:41:33;;;;;;;1999.90;999.90;;;;;;;14.49;100.00;98349.75;5030787;28;20084;-74
2023/05/09 07:43:58;;;;;;;1999.90;999.90;;;;;;;14.69;100.00;98345.69;5030649;28;20065;-74
2023/05/09 07:46:23;;;;;;;1999.90;999.90;;;;;;;14.59;100.00;98355.00;5031057;28;20068;-74
2023/05/09 07:48:49;;;;;;;1999.90;999.90;;;;;;;14.37;100.00;98342.03;5030729;28;20036;-74
2023/05/09 07:51:14;;;;;;;1999.90;999.90;;;;;;;14.23;100.00;98338.47;5030684;28;20049;-74
2023/05/09 07:53:40;;;;;;;1999.90;999.90;;;;;;;14.48;100.00;98335.16;5030436;28;20079;-74
2023/05/09 07:56:05;;;;;;;1999.90;999.90;;;;;;;14.37;100.00;98341.22;5029206;28;20028;-73
2023/05/09 07:58:31;;;;;;;1999.90;999.90;;;;;;;14.42;100.00;98341.09;5030534;28;20184;-73
2023/05/09 08:00:56;;;;;;;1999.90;999.90;;;;;;;14.36;100.00;98342.34;5030312;28;20053;-74
2023/05/09 08:03:22;;;;;;;1999.90;999.90;;;;;;;14.35;100.00;98343.44;5030343;28;20033;-73
2023/05/09 08:05:47;;;;;;;1999.90;999.90;;;;;;;14.14;100.00;98339.50;5030570;28;20121;-74
2023/05/09 08:08:12;;;;;;;1999.90;999.90;;;;;;;14.23;100.00;98340.38;5030608;28;20026;-74
2023/05/09 08:10:37;;;;;;;1999.90;999.90;;;;;;;14.26;100.00;98342.53;5032090;28;20033;-74
2023/05/09 08:13:03;;;;;;;1999.90;999.90;;;;;;;14.48;100.00;98342.59;5034419;28;20494;-74
2023/05/09 08:15:28;;;;;;;1999.90;999.90;;;;;;;14.49;100.00;98338.72;5035003;28;20079;-74
2023/05/09 08:17:53;;;;;;;1999.90;999.90;;;;;;;14.09;100.00;98331.38;5034497;28;20117;-75
2023/05/09 08:20:19;;;;;;;1999.90;999.90;;;;;;;14.15;100.00;98338.38;5034705;28;20076;-74
2023/05/09 08:22:44;;;;;;;1999.90;999.90;;;;;;;14.19;100.00;98340.19;5034316;28;20056;-73
2023/05/09 08:25:10;;;;;;;1999.90;999.90;;;;;;;14.46;100.00;98342.09;5034280;28;20057;-74
2023/05/09 08:27:35;;;;;;;1999.90;999.90;;;;;;;14.72;100.00;98336.81;5036598;28;20041;-74
2023/05/09 08:30:00;;;;;;;1999.90;999.90;;;;;;;15.22;100.00;98342.97;5038800;28;20060;-74
2023/05/09 08:32:25;;;;;;;1999.90;999.90;;;;;;;15.24;100.00;98338.75;5034169;28;20095;-74
2023/05/09 08:34:51;;;;;;;1999.90;999.90;;;;;;;15.26;100.00;98335.69;5034864;28;20116;-73
2023/05/09 08:37:16;;;;;;;1999.90;999.90;;;;;;;15.28;100.00;98333.44;5035094;28;20478;-73
2023/05/09 08:39:42;;;;;;;1999.90;999.90;;;;;;;14.90;100.00;98333.03;5033882;28;20088;-73
2023/05/09 08:42:08;;;;;;;1999.90;999.90;;;;;;;14.71;100.00;98338.75;5034015;28;20044;-74
2023/05/09 08:44:33;;;;;;;1999.90;999.90;;;;;;;14.91;100.00;98335.47;5033816;28;20025;-74
2023/05/09 08:47:01;;;;;;;1999.90;999.90;;;;;;;14.41;100.00;98331.19;5034366;28;20032;-74
2023/05/09 08:49:26;;;;;;;1999.90;999.90;;;;;;;14.29;100.00;98344.66;5033980;28;20037;-73
2023/05/09 08:51:53;;;;;;;1999.90;999.90;;;;;;;14.60;100.00;98337.34;5033750;28;20033;-73
2023/05/09 08:54:20;;;;;;;1999.90;999.90;;;;;;;15.61;100.00;98343.00;5034015;28;20033;-73
2023/05/09 08:56:46;;;;;;;1999.90;999.90;;;;;;;18.95;100.00;98346.16;5033826;28;20033;-74
2023/05/09 08:59:12;;;;;;;1999.90;999.90;;;;;;;21.82;73.88;98346.47;5033707;28;20525;-74
2023/05/09 09:01:39;;;;;;;1999.90;999.90;;;;;;;22.28;64.81;98353.19;5033652;28;20017;-74
2023/05/09 09:04:06;;;;;;;1999.90;999.90;;;;;;;21.08;68.35;98358.34;5032322;28;20048;-75
2023/05/09 09:06:35;;;;;;;1999.90;999.90;;;;;;;20.09;73.17;98365.59;5033363;28;20041;-76
2023/05/09 09:09:04;;;;;;;1999.90;999.90;;;;;;;19.94;71.34;98347.66;5033631;28;20029;-74
2023/05/09 09:11:31;;;;;;;1999.90;999.90;;;;;;;18.36;77.60;98346.25;5033717;28;20038;-74
2023/05/09 09:14:01;;;;;;;1999.90;999.90;;;;;;;18.05;80.16;98348.56;5032184;28;20506;-74
2023/05/09 09:16:28;;;;;;;1999.90;999.90;;;;;;;18.08;82.93;98343.19;5032551;28;20029;-74
2023/05/09 09:18:54;;;;;;;1999.90;999.90;;;;;;;17.44;88.73;98333.38;5033267;28;20539;-75
2023/05/09 09:21:20;;;;;;;1999.90;999.90;;;;;;;18.35;81.88;98341.06;5033295;28;20032;-74
2023/05/09 09:23:47;;;;;;;1999.90;999.90;;;;;;;18.12;80.36;98337.78;5032644;28;20386;-74
2023/05/09 09:26:12;;;;;;;1999.90;999.90;;;;;;;18.55;77.50;98334.75;5033340;28;20029;-74
2023/05/09 09:28:38;;;;;;;1999.90;999.90;;;;;;;16.93;85.28;98335.09;5033212;28;20500;-74
2023/05/09 09:31:23;;;;;;;1999.90;999.90;;;;;;;17.19;83.10;98321.25;5033115;28;20033;-74
2023/05/09 09:33:49;;;;;;;1999.90;999.90;;;;;;;16.85;90.92;98315.78;5033278;28;20123;-74
2023/05/09 09:36:14;;;;;;;1999.90;999.90;;;;;;;17.13;92.50;98317.81;5033129;28;20136;-74
2023/05/09 09:38:44;;;;;;;1999.90;999.90;;;;;;;17.23;85.77;98318.63;5032609;28;20026;-74
2023/05/09 09:41:11;;;;;;;1999.90;999.90;;;;;;;17.90;78.85;98313.97;5032897;28;20033;-74
2023/05/09 09:43:37;;;;;;;1999.90;999.90;;;;;;;19.01;74.83;98325.38;5032992;28;20092;-74
2023/05/09 09:46:03;;;;;;;1999.90;999.90;;;;;;;20.08;70.83;98320.34;5031657;28;20065;-75
2023/05/09 09:48:33;;;;;;;1999.90;999.90;;;;;;;20.93;67.08;98325.72;5032762;28;20563;-75
2023/05/09 09:51:17;;;;;;;1999.90;999.90;;;;;;;20.08;64.22;98325.91;5032770;28;20032;-75
2023/05/09 09:53:43;;;;;;;1999.90;999.90;;;;;;;20.08;65.31;98320.34;5032851;28;20060;-75
2023/05/09 09:56:09;;;;;;;1999.90;999.90;;;;;;;19.73;66.90;98316.44;5032866;28;20386;-75
2023/05/09 09:58:35;;;;;;;1999.90;999.90;;;;;;;19.68;68.66;98323.00;5033238;28;20025;-74
2023/05/09 10:01:04;;;;;;;1999.90;999.90;;;;;;;19.67;66.51;98317.81;5033246;28;20040;-74
2023/05/09 10:03:36;;;;;;;1999.90;999.90;;;;;;;21.12;61.26;98320.34;5032685;28;20022;-74
2023/05/09 10:06:01;;;;;;;1999.90;999.90;;;;;;;20.21;63.78;98310.84;5032553;28;20486;-75
2023/05/09 10:08:27;;;;;;;1999.90;999.90;;;;;;;19.77;62.88;98317.34;5032581;28;20041;-74
2023/05/09 10:10:52;;;;;;;1999.90;999.90;;;;;;;19.69;62.19;98312.72;5032287;28;20474;-74
2023/05/09 10:13:18;;;;;;;1999.90;999.90;;;;;;;18.71;63.61;98308.03;5032376;28;20435;-75
2023/05/09 10:15:44;;;;;;;1999.90;999.90;;;;;;;18.40;66.08;98304.84;5032287;28;20025;-74
2023/05/09 10:18:13;;;;;;;1999.90;999.90;;;;;;;18.25;68.75;98308.22;5031119;28;20031;-75
2023/05/09 10:20:40;;;;;;;1999.90;999.90;;;;;;;17.81;69.09;98306.84;5032320;28;20048;-74
2023/05/09 10:23:07;;;;;;;1999.90;999.90;;;;;;;17.79;69.89;98298.91;5031969;28;20111;-74
2023/05/09 10:25:59;;;;;;;1999.90;999.90;;;;;;;18.50;64.80;98312.78;5032068;28;20021;-74
2023/05/09 10:28:31;;;;;;;1999.90;999.90;;;;;;;18.83;63.32;98312.81;5031994;28;20532;-74
2023/05/09 10:31:04;;;;;;;1999.90;999.90;;;;;;;17.95;68.51;98305.47;5032009;28;20032;-74
2023/05/09 10:33:41;;;;;;;1999.90;999.90;;;;;;;18.35;67.90;98303.09;5031488;28;20060;-74
2023/05/09 10:36:07;;;;;;;1999.90;999.90;;;;;;;18.72;67.14;98306.91;5035199;28;20048;-74
2023/05/09 10:38:32;;;;;;;1999.90;999.90;;;;;;;18.58;67.39;98303.56;5036081;28;20041;-74
2023/05/09 10:40:58;;;;;;;1999.90;999.90;;;;;;;19.01;64.69;98292.91;5031738;28;20060;-74
2023/05/09 10:43:24;;;;;;;1999.90;999.90;;;;;;;17.84;65.26;98284.88;5031827;28;20025;-75
2023/05/09 10:45:50;;;;;;;1999.90;999.90;;;;;;;17.77;65.75;98276.28;5031581;28;20048;-74